sensor_id;sensor_type;location;lat;lon;timestamp;P1;durP1;ratioP1;P2;durP2;ratioP2
35606;SDS011;21729;58.392;15.656;2023-04-25T00:00:59;1.83;;;1.70;;
35606;SDS011;21729;58.392;15.656;2023-04-25T00:03:27;1.88;;;1.77;;
35606;SDS011;21729;58.392;15.656;2023-04-25T00:05:54;2.70;;;1.63;;
35606;SDS011;21729;58.392;15.656;2023-04-25T00:08:22;1.60;;;1.50;;
35606;SDS011;21729;58.392;15.656;2023-04-25T00:10:49;1.60;;;1.50;;
35606;SDS011;21729;58.392;15.656;2023-04-25T00:13:16;1.50;;;1.27;;
35606;SDS011;21729;58.392;15.656;2023-04-25T00:15:45;2.03;;;1.53;;
35606;SDS011;21729;58.392;15.656;2023-04-25T00:18:13;1.50;;;1.40;;
35606;SDS011;21729;58.392;15.656;2023-04-25T00:20:40;1.50;;;1.40;;
35606;SDS011;21729;58.392;15.656;2023-04-25T00:23:11;1.40;;;1.30;;
35606;SDS011;21729;58.392;15.656;2023-04-25T00:25:42;1.42;;;1.33;;
35606;SDS011;21729;58.392;15.656;2023-04-25T00:28:09;1.50;;;1.40;;
35606;SDS011;21729;58.392;15.656;2023-04-25T00:30:37;1.30;;;1.20;;
35606;SDS011;21729;58.392;15.656;2023-04-25T00:33:05;1.50;;;1.40;;
35606;SDS011;21729;58.392;15.656;2023-04-25T00:35:32;1.50;;;1.40;;
35606;SDS011;21729;58.392;15.656;2023-04-25T00:38:00;1.57;;;1.47;;
35606;SDS011;21729;58.392;15.656;2023-04-25T00:40:27;1.40;;;1.30;;
35606;SDS011;21729;58.392;15.656;2023-04-25T00:42:54;1.50;;;1.40;;
35606;SDS011;21729;58.392;15.656;2023-04-25T00:45:21;1.50;;;1.40;;
35606;SDS011;21729;58.392;15.656;2023-04-25T00:47:53;1.73;;;1.20;;
35606;SDS011;21729;58.392;15.656;2023-04-25T00:50:23;1.40;;;1.30;;
35606;SDS011;21729;58.392;15.656;2023-04-25T00:52:50;1.58;;;1.48;;
35606;SDS011;21729;58.392;15.656;2023-04-25T00:55:18;1.40;;;1.30;;
35606;SDS011;21729;58.392;15.656;2023-04-25T00:57:46;2.47;;;1.73;;
35606;SDS011;21729;58.392;15.656;2023-04-25T01:00:13;2.47;;;1.30;;
35606;SDS011;21729;58.392;15.656;2023-04-25T01:02:41;1.65;;;1.55;;
35606;SDS011;21729;58.392;15.656;2023-04-25T01:05:09;1.40;;;1.30;;
35606;SDS011;21729;58.392;15.656;2023-04-25T01:07:38;1.90;;;1.80;;
35606;SDS011;21729;58.392;15.656;2023-04-25T01:10:06;1.67;;;1.58;;
35606;SDS011;21729;58.392;15.656;2023-04-25T01:12:34;1.83;;;1.73;;
35606;SDS011;21729;58.392;15.656;2023-04-25T01:15:01;2.00;;;1.90;;
35606;SDS011;21729;58.392;15.656;2023-04-25T01:17:29;2.05;;;1.85;;
35606;SDS011;21729;58.392;15.656;2023-04-25T01:19:56;1.98;;;1.88;;
35606;SDS011;21729;58.392;15.656;2023-04-25T01:22:25;2.13;;;2.03;;
35606;SDS011;21729;58.392;15.656;2023-04-25T01:24:52;1.80;;;1.70;;
35606;SDS011;21729;58.392;15.656;2023-04-25T01:27:19;2.10;;;1.75;;
35606;SDS011;21729;58.392;15.656;2023-04-25T01:29:47;2.10;;;1.90;;
35606;SDS011;21729;58.392;15.656;2023-04-25T01:32:16;1.80;;;1.70;;
35606;SDS011;21729;58.392;15.656;2023-04-25T01:34:44;1.80;;;1.70;;
35606;SDS011;21729;58.392;15.656;2023-04-25T01:37:12;1.80;;;1.70;;
35606;SDS011;21729;58.392;15.656;2023-04-25T01:39:40;2.20;;;2.10;;
35606;SDS011;21729;58.392;15.656;2023-04-25T01:42:08;2.10;;;1.92;;
35606;SDS011;21729;58.392;15.656;2023-04-25T01:44:35;1.88;;;1.77;;
35606;SDS011;21729;58.392;15.656;2023-04-25T01:47:02;2.00;;;1.80;;
35606;SDS011;21729;58.392;15.656;2023-04-25T01:49:30;1.80;;;1.70;;
35606;SDS011;21729;58.392;15.656;2023-04-25T01:51:57;2.28;;;2.10;;
35606;SDS011;21729;58.392;15.656;2023-04-25T01:54:25;2.03;;;1.92;;
35606;SDS011;21729;58.392;15.656;2023-04-25T01:56:54;2.00;;;1.80;;
35606;SDS011;21729;58.392;15.656;2023-04-25T01:59:25;2.00;;;1.90;;
35606;SDS011;21729;58.392;15.656;2023-04-25T02:01:52;2.40;;;1.90;;
35606;SDS011;21729;58.392;15.656;2023-04-25T02:04:19;1.90;;;1.70;;
35606;SDS011;21729;58.392;15.656;2023-04-25T02:06:46;1.90;;;1.80;;
35606;SDS011;21729;58.392;15.656;2023-04-25T02:09:13;2.22;;;1.80;;
35606;SDS011;21729;58.392;15.656;2023-04-25T02:11:41;1.90;;;1.80;;
35606;SDS011;21729;58.392;15.656;2023-04-25T02:14:09;1.90;;;1.80;;
35606;SDS011;21729;58.392;15.656;2023-04-25T02:16:36;1.63;;;1.53;;
35606;SDS011;21729;58.392;15.656;2023-04-25T02:19:04;1.73;;;1.63;;
35606;SDS011;21729;58.392;15.656;2023-04-25T02:21:32;1.90;;;1.50;;
35606;SDS011;21729;58.392;15.656;2023-04-25T02:24:00;1.65;;;1.50;;
35606;SDS011;21729;58.392;15.656;2023-04-25T02:26:28;2.40;;;1.55;;
35606;SDS011;21729;58.392;15.656;2023-04-25T02:28:56;1.70;;;1.50;;
35606;SDS011;21729;58.392;15.656;2023-04-25T02:31:24;1.60;;;1.50;;
35606;SDS011;21729;58.392;15.656;2023-04-25T02:33:52;1.40;;;1.30;;
35606;SDS011;21729;58.392;15.656;2023-04-25T02:36:19;1.47;;;1.37;;
35606;SDS011;21729;58.392;15.656;2023-04-25T02:38:46;1.50;;;1.40;;
35606;SDS011;21729;58.392;15.656;2023-04-25T02:41:13;1.50;;;1.40;;
35606;SDS011;21729;58.392;15.656;2023-04-25T02:43:40;1.58;;;1.30;;
35606;SDS011;21729;58.392;15.656;2023-04-25T02:46:07;1.30;;;1.20;;
35606;SDS011;21729;58.392;15.656;2023-04-25T02:48:36;1.50;;;1.40;;
35606;SDS011;21729;58.392;15.656;2023-04-25T02:51:03;1.50;;;1.40;;
35606;SDS011;21729;58.392;15.656;2023-04-25T02:53:30;1.35;;;1.20;;
35606;SDS011;21729;58.392;15.656;2023-04-25T02:55:57;1.60;;;1.40;;
35606;SDS011;21729;58.392;15.656;2023-04-25T02:58:24;1.48;;;1.38;;
35606;SDS011;21729;58.392;15.656;2023-04-25T03:00:51;1.45;;;1.35;;
35606;SDS011;21729;58.392;15.656;2023-04-25T03:03:19;1.30;;;1.20;;
35606;SDS011;21729;58.392;15.656;2023-04-25T03:05:48;1.50;;;1.40;;
35606;SDS011;21729;58.392;15.656;2023-04-25T03:08:16;1.20;;;1.20;;
35606;SDS011;21729;58.392;15.656;2023-04-25T03:10:43;1.10;;;1.10;;
35606;SDS011;21729;58.392;15.656;2023-04-25T03:13:11;1.10;;;1.10;;
35606;SDS011;21729;58.392;15.656;2023-04-25T03:15:38;1.00;;;1.00;;
35606;SDS011;21729;58.392;15.656;2023-04-25T03:18:05;1.23;;;1.13;;
35606;SDS011;21729;58.392;15.656;2023-04-25T03:20:33;1.13;;;1.00;;
35606;SDS011;21729;58.392;15.656;2023-04-25T03:23:04;1.00;;;1.00;;
35606;SDS011;21729;58.392;15.656;2023-04-25T03:25:31;1.13;;;1.02;;
35606;SDS011;21729;58.392;15.656;2023-04-25T03:28:05;1.42;;;1.15;;
35606;SDS011;21729;58.392;15.656;2023-04-25T03:30:32;1.00;;;1.00;;
35606;SDS011;21729;58.392;15.656;2023-04-25T03:33:00;1.30;;;1.08;;
35606;SDS011;21729;58.392;15.656;2023-04-25T03:35:27;1.60;;;1.10;;
35606;SDS011;21729;58.392;15.656;2023-04-25T03:37:54;1.65;;;1.00;;
35606;SDS011;21729;58.392;15.656;2023-04-25T03:40:23;1.10;;;1.10;;
35606;SDS011;21729;58.392;15.656;2023-04-25T03:42:50;1.20;;;1.20;;
35606;SDS011;21729;58.392;15.656;2023-04-25T03:45:17;1.20;;;1.10;;
35606;SDS011;21729;58.392;15.656;2023-04-25T03:47:44;1.20;;;1.10;;
35606;SDS011;21729;58.392;15.656;2023-04-25T03:50:12;2.10;;;1.27;;
35606;SDS011;21729;58.392;15.656;2023-04-25T03:52:39;1.50;;;1.40;;
35606;SDS011;21729;58.392;15.656;2023-04-25T03:55:06;1.42;;;1.27;;
35606;SDS011;21729;58.392;15.656;2023-04-25T03:57:35;2.15;;;1.40;;
35606;SDS011;21729;58.392;15.656;2023-04-25T04:00:03;1.98;;;1.38;;
35606;SDS011;21729;58.392;15.656;2023-04-25T04:02:31;1.70;;;1.30;;
35606;SDS011;21729;58.392;15.656;2023-04-25T04:05:00;1.60;;;1.30;;
35606;SDS011;21729;58.392;15.656;2023-04-25T04:07:27;1.40;;;1.30;;
35606;SDS011;21729;58.392;15.656;2023-04-25T04:09:54;1.45;;;1.33;;
35606;SDS011;21729;58.392;15.656;2023-04-25T04:12:22;1.52;;;1.40;;
35606;SDS011;21729;58.392;15.656;2023-04-25T04:14:51;2.17;;;1.38;;
35606;SDS011;21729;58.392;15.656;2023-04-25T04:17:18;2.35;;;1.40;;
35606;SDS011;21729;58.392;15.656;2023-04-25T04:19:46;1.70;;;1.60;;
35606;SDS011;21729;58.392;15.656;2023-04-25T04:22:13;3.80;;;1.70;;
35606;SDS011;21729;58.392;15.656;2023-04-25T04:24:40;1.50;;;1.40;;
35606;SDS011;21729;58.392;15.656;2023-04-25T04:27:09;2.70;;;1.50;;
35606;SDS011;21729;58.392;15.656;2023-04-25T04:29:37;2.63;;;1.60;;
35606;SDS011;21729;58.392;15.656;2023-04-25T04:32:07;1.60;;;1.50;;
35606;SDS011;21729;58.392;15.656;2023-04-25T04:34:35;1.95;;;1.73;;
35606;SDS011;21729;58.392;15.656;2023-04-25T04:37:04;2.28;;;1.80;;
35606;SDS011;21729;58.392;15.656;2023-04-25T04:39:35;1.65;;;1.55;;
35606;SDS011;21729;58.392;15.656;2023-04-25T04:42:03;2.88;;;1.70;;
35606;SDS011;21729;58.392;15.656;2023-04-25T04:44:32;1.98;;;1.70;;
35606;SDS011;21729;58.392;15.656;2023-04-25T04:47:00;1.98;;;1.60;;
35606;SDS011;21729;58.392;15.656;2023-04-25T04:49:33;1.90;;;1.75;;
35606;SDS011;21729;58.392;15.656;2023-04-25T04:52:01;2.10;;;1.90;;
35606;SDS011;21729;58.392;15.656;2023-04-25T04:54:33;2.03;;;1.70;;
35606;SDS011;21729;58.392;15.656;2023-04-25T04:57:02;2.70;;;1.85;;
35606;SDS011;21729;58.392;15.656;2023-04-25T04:59:32;2.00;;;1.70;;
35606;SDS011;21729;58.392;15.656;2023-04-25T05:02:00;3.35;;;1.73;;
35606;SDS011;21729;58.392;15.656;2023-04-25T05:04:27;2.53;;;1.85;;
35606;SDS011;21729;58.392;15.656;2023-04-25T05:06:58;3.47;;;2.00;;
35606;SDS011;21729;58.392;15.656;2023-04-25T05:09:26;2.47;;;1.90;;
35606;SDS011;21729;58.392;15.656;2023-04-25T05:11:54;4.22;;;1.98;;
35606;SDS011;21729;58.392;15.656;2023-04-25T05:14:22;5.70;;;1.92;;
35606;SDS011;21729;58.392;15.656;2023-04-25T05:16:51;2.20;;;2.00;;
35606;SDS011;21729;58.392;15.656;2023-04-25T05:19:19;3.95;;;2.40;;
35606;SDS011;21729;58.392;15.656;2023-04-25T05:21:47;2.20;;;2.00;;
35606;SDS011;21729;58.392;15.656;2023-04-25T05:24:16;3.25;;;2.10;;
35606;SDS011;21729;58.392;15.656;2023-04-25T05:26:44;5.57;;;2.42;;
35606;SDS011;21729;58.392;15.656;2023-04-25T05:29:13;4.60;;;2.40;;
35606;SDS011;21729;58.392;15.656;2023-04-25T05:31:42;5.65;;;2.40;;
35606;SDS011;21729;58.392;15.656;2023-04-25T05:34:11;3.13;;;2.15;;
35606;SDS011;21729;58.392;15.656;2023-04-25T05:36:39;6.70;;;2.00;;
35606;SDS011;21729;58.392;15.656;2023-04-25T05:39:09;2.27;;;2.00;;
35606;SDS011;21729;58.392;15.656;2023-04-25T05:41:45;3.87;;;2.27;;
35606;SDS011;21729;58.392;15.656;2023-04-25T05:44:13;3.00;;;2.00;;
35606;SDS011;21729;58.392;15.656;2023-04-25T05:46:43;2.30;;;2.10;;
35606;SDS011;21729;58.392;15.656;2023-04-25T05:49:14;4.32;;;2.20;;
35606;SDS011;21729;58.392;15.656;2023-04-25T05:51:42;2.30;;;2.20;;
35606;SDS011;21729;58.392;15.656;2023-04-25T05:54:10;3.03;;;2.25;;
35606;SDS011;21729;58.392;15.656;2023-04-25T05:56:39;2.50;;;2.30;;
35606;SDS011;21729;58.392;15.656;2023-04-25T05:59:09;8.95;;;2.30;;
35606;SDS011;21729;58.392;15.656;2023-04-25T06:01:39;3.63;;;2.08;;
35606;SDS011;21729;58.392;15.656;2023-04-25T06:04:09;3.83;;;2.27;;
35606;SDS011;21729;58.392;15.656;2023-04-25T06:06:38;7.18;;;2.05;;
35606;SDS011;21729;58.392;15.656;2023-04-25T06:09:06;2.40;;;2.20;;
35606;SDS011;21729;58.392;15.656;2023-04-25T06:11:33;2.53;;;2.33;;
35606;SDS011;21729;58.392;15.656;2023-04-25T06:14:02;2.88;;;2.35;;
35606;SDS011;21729;58.392;15.656;2023-04-25T06:16:29;2.80;;;2.40;;
35606;SDS011;21729;58.392;15.656;2023-04-25T06:18:57;2.95;;;2.20;;
35606;SDS011;21729;58.392;15.656;2023-04-25T06:21:26;6.03;;;2.20;;
35606;SDS011;21729;58.392;15.656;2023-04-25T06:23:54;2.60;;;2.40;;
35606;SDS011;21729;58.392;15.656;2023-04-25T06:26:21;2.43;;;2.23;;
35606;SDS011;21729;58.392;15.656;2023-04-25T06:28:48;3.63;;;2.40;;
35606;SDS011;21729;58.392;15.656;2023-04-25T06:31:17;2.90;;;2.60;;
35606;SDS011;21729;58.392;15.656;2023-04-25T06:33:45;2.97;;;2.63;;
35606;SDS011;21729;58.392;15.656;2023-04-25T06:36:13;2.72;;;2.53;;
35606;SDS011;21729;58.392;15.656;2023-04-25T06:38:41;2.10;;;1.90;;
35606;SDS011;21729;58.392;15.656;2023-04-25T06:41:09;2.53;;;2.33;;
35606;SDS011;21729;58.392;15.656;2023-04-25T06:43:37;2.33;;;2.13;;
35606;SDS011;21729;58.392;15.656;2023-04-25T06:46:05;2.10;;;2.00;;
35606;SDS011;21729;58.392;15.656;2023-04-25T06:48:34;2.40;;;2.20;;
35606;SDS011;21729;58.392;15.656;2023-04-25T06:51:03;2.63;;;2.40;;
35606;SDS011;21729;58.392;15.656;2023-04-25T06:53:31;2.17;;;2.08;;
35606;SDS011;21729;58.392;15.656;2023-04-25T06:55:59;2.40;;;2.10;;
35606;SDS011;21729;58.392;15.656;2023-04-25T06:58:28;2.30;;;2.15;;
35606;SDS011;21729;58.392;15.656;2023-04-25T07:00:56;2.40;;;2.20;;
35606;SDS011;21729;58.392;15.656;2023-04-25T07:03:25;2.15;;;2.03;;
35606;SDS011;21729;58.392;15.656;2023-04-25T07:05:56;2.58;;;2.38;;
35606;SDS011;21729;58.392;15.656;2023-04-25T07:08:29;2.00;;;1.90;;
35606;SDS011;21729;58.392;15.656;2023-04-25T07:10:56;2.03;;;1.92;;
35606;SDS011;21729;58.392;15.656;2023-04-25T07:13:24;1.88;;;1.77;;
35606;SDS011;21729;58.392;15.656;2023-04-25T07:15:51;2.20;;;2.00;;
35606;SDS011;21729;58.392;15.656;2023-04-25T07:18:19;2.10;;;2.00;;
35606;SDS011;21729;58.392;15.656;2023-04-25T07:20:46;2.30;;;2.10;;
35606;SDS011;21729;58.392;15.656;2023-04-25T07:23:15;2.78;;;2.13;;
35606;SDS011;21729;58.392;15.656;2023-04-25T07:25:43;2.20;;;2.10;;
35606;SDS011;21729;58.392;15.656;2023-04-25T07:28:10;1.90;;;1.80;;
35606;SDS011;21729;58.392;15.656;2023-04-25T07:30:38;1.90;;;1.80;;
35606;SDS011;21729;58.392;15.656;2023-04-25T07:33:06;2.20;;;1.92;;
35606;SDS011;21729;58.392;15.656;2023-04-25T07:35:33;2.20;;;2.05;;
35606;SDS011;21729;58.392;15.656;2023-04-25T07:38:01;2.27;;;2.07;;
35606;SDS011;21729;58.392;15.656;2023-04-25T07:40:30;2.25;;;2.08;;
35606;SDS011;21729;58.392;15.656;2023-04-25T07:42:58;2.15;;;2.00;;
35606;SDS011;21729;58.392;15.656;2023-04-25T07:45:26;2.38;;;2.17;;
35606;SDS011;21729;58.392;15.656;2023-04-25T07:47:54;2.88;;;2.20;;
35606;SDS011;21729;58.392;15.656;2023-04-25T07:50:22;3.97;;;2.20;;
35606;SDS011;21729;58.392;15.656;2023-04-25T07:52:50;2.17;;;1.80;;
35606;SDS011;21729;58.392;15.656;2023-04-25T07:55:18;2.80;;;1.90;;
35606;SDS011;21729;58.392;15.656;2023-04-25T07:57:47;3.28;;;2.10;;
35606;SDS011;21729;58.392;15.656;2023-04-25T08:00:16;2.30;;;2.20;;
35606;SDS011;21729;58.392;15.656;2023-04-25T08:02:44;2.42;;;2.20;;
35606;SDS011;21729;58.392;15.656;2023-04-25T08:05:12;2.33;;;2.13;;
35606;SDS011;21729;58.392;15.656;2023-04-25T08:07:40;2.50;;;2.30;;
35606;SDS011;21729;58.392;15.656;2023-04-25T08:10:09;2.40;;;2.20;;
35606;SDS011;21729;58.392;15.656;2023-04-25T08:12:37;2.38;;;2.08;;
35606;SDS011;21729;58.392;15.656;2023-04-25T08:15:07;2.60;;;2.40;;
35606;SDS011;21729;58.392;15.656;2023-04-25T08:17:35;2.47;;;2.27;;
35606;SDS011;21729;58.392;15.656;2023-04-25T08:20:02;2.42;;;2.22;;
35606;SDS011;21729;58.392;15.656;2023-04-25T08:22:31;3.25;;;2.58;;
35606;SDS011;21729;58.392;15.656;2023-04-25T08:24:59;2.60;;;2.40;;
35606;SDS011;21729;58.392;15.656;2023-04-25T08:27:26;2.60;;;2.40;;
35606;SDS011;21729;58.392;15.656;2023-04-25T08:29:54;3.60;;;2.50;;
35606;SDS011;21729;58.392;15.656;2023-04-25T08:32:22;2.40;;;2.20;;
35606;SDS011;21729;58.392;15.656;2023-04-25T08:34:50;3.08;;;2.70;;
35606;SDS011;21729;58.392;15.656;2023-04-25T08:37:19;2.70;;;2.50;;
35606;SDS011;21729;58.392;15.656;2023-04-25T08:39:46;3.58;;;2.78;;
35606;SDS011;21729;58.392;15.656;2023-04-25T08:42:16;2.70;;;2.50;;
35606;SDS011;21729;58.392;15.656;2023-04-25T08:44:44;3.00;;;2.70;;
35606;SDS011;21729;58.392;15.656;2023-04-25T08:47:12;3.97;;;2.70;;
35606;SDS011;21729;58.392;15.656;2023-04-25T08:49:42;3.40;;;3.10;;
35606;SDS011;21729;58.392;15.656;2023-04-25T08:52:13;3.30;;;3.00;;
35606;SDS011;21729;58.392;15.656;2023-04-25T08:54:41;3.30;;;3.00;;
35606;SDS011;21729;58.392;15.656;2023-04-25T08:57:10;2.95;;;2.75;;
35606;SDS011;21729;58.392;15.656;2023-04-25T08:59:39;3.13;;;2.83;;
35606;SDS011;21729;58.392;15.656;2023-04-25T09:02:10;3.10;;;2.80;;
35606;SDS011;21729;58.392;15.656;2023-04-25T09:04:43;3.00;;;2.80;;
35606;SDS011;21729;58.392;15.656;2023-04-25T09:07:11;3.10;;;2.80;;
35606;SDS011;21729;58.392;15.656;2023-04-25T09:09:41;3.25;;;2.78;;
35606;SDS011;21729;58.392;15.656;2023-04-25T09:12:09;3.03;;;2.83;;
35606;SDS011;21729;58.392;15.656;2023-04-25T09:14:37;2.90;;;2.70;;
35606;SDS011;21729;58.392;15.656;2023-04-25T09:17:04;3.38;;;2.95;;
35606;SDS011;21729;58.392;15.656;2023-04-25T09:19:33;3.50;;;3.20;;
35606;SDS011;21729;58.392;15.656;2023-04-25T09:22:06;4.50;;;3.40;;
35606;SDS011;21729;58.392;15.656;2023-04-25T09:24:34;4.00;;;3.60;;
35606;SDS011;21729;58.392;15.656;2023-04-25T09:27:05;3.97;;;3.67;;
35606;SDS011;21729;58.392;15.656;2023-04-25T09:29:34;4.28;;;3.88;;
35606;SDS011;21729;58.392;15.656;2023-04-25T09:32:14;3.67;;;3.38;;
35606;SDS011;21729;58.392;15.656;2023-04-25T09:34:43;3.85;;;3.50;;
35606;SDS011;21729;58.392;15.656;2023-04-25T09:37:17;4.00;;;3.70;;
35606;SDS011;21729;58.392;15.656;2023-04-25T09:39:46;4.45;;;3.50;;
35606;SDS011;21729;58.392;15.656;2023-04-25T09:42:14;3.70;;;3.40;;
35606;SDS011;21729;58.392;15.656;2023-04-25T09:44:42;4.57;;;3.60;;
35606;SDS011;21729;58.392;15.656;2023-04-25T09:47:11;4.72;;;3.80;;
35606;SDS011;21729;58.392;15.656;2023-04-25T09:49:43;4.78;;;4.28;;
35606;SDS011;21729;58.392;15.656;2023-04-25T09:52:13;4.32;;;3.92;;
35606;SDS011;21729;58.392;15.656;2023-04-25T09:54:43;4.60;;;4.00;;
35606;SDS011;21729;58.392;15.656;2023-04-25T09:57:12;5.07;;;4.20;;
35606;SDS011;21729;58.392;15.656;2023-04-25T09:59:43;5.68;;;4.43;;
35606;SDS011;21729;58.392;15.656;2023-04-25T10:02:12;5.70;;;5.10;;
35606;SDS011;21729;58.392;15.656;2023-04-25T10:04:41;4.87;;;4.47;;
35606;SDS011;21729;58.392;15.656;2023-04-25T10:07:10;4.87;;;4.47;;
35606;SDS011;21729;58.392;15.656;2023-04-25T10:09:39;4.78;;;4.38;;
35606;SDS011;21729;58.392;15.656;2023-04-25T10:12:09;5.53;;;5.00;;
35606;SDS011;21729;58.392;15.656;2023-04-25T10:14:37;5.75;;;5.15;;
35606;SDS011;21729;58.392;15.656;2023-04-25T10:17:06;5.20;;;4.73;;
35606;SDS011;21729;58.392;15.656;2023-04-25T10:19:36;6.40;;;4.90;;
35606;SDS011;21729;58.392;15.656;2023-04-25T10:22:07;5.90;;;5.38;;
35606;SDS011;21729;58.392;15.656;2023-04-25T10:24:36;5.60;;;5.10;;
35606;SDS011;21729;58.392;15.656;2023-04-25T10:27:05;5.28;;;4.78;;
35606;SDS011;21729;58.392;15.656;2023-04-25T10:29:34;5.47;;;4.97;;
35606;SDS011;21729;58.392;15.656;2023-04-25T10:32:02;6.22;;;5.00;;
35606;SDS011;21729;58.392;15.656;2023-04-25T10:34:40;6.55;;;5.90;;
35606;SDS011;21729;58.392;15.656;2023-04-25T10:37:11;6.03;;;5.50;;
35606;SDS011;21729;58.392;15.656;2023-04-25T10:39:39;6.53;;;5.63;;
35606;SDS011;21729;58.392;15.656;2023-04-25T10:42:07;7.07;;;5.97;;
35606;SDS011;21729;58.392;15.656;2023-04-25T10:44:36;6.57;;;5.85;;
35606;SDS011;21729;58.392;15.656;2023-04-25T10:47:05;6.30;;;5.68;;
35606;SDS011;21729;58.392;15.656;2023-04-25T10:49:34;6.70;;;6.10;;
35606;SDS011;21729;58.392;15.656;2023-04-25T10:52:16;7.43;;;6.07;;
35606;SDS011;21729;58.392;15.656;2023-04-25T10:54:47;6.20;;;5.60;;
35606;SDS011;21729;58.392;15.656;2023-04-25T10:57:27;6.80;;;6.00;;
35606;SDS011;21729;58.392;15.656;2023-04-25T11:00:04;7.50;;;6.27;;
35606;SDS011;21729;58.392;15.656;2023-04-25T11:02:42;7.15;;;6.25;;
35606;SDS011;21729;58.392;15.656;2023-04-25T11:05:22;7.07;;;5.90;;
35606;SDS011;21729;58.392;15.656;2023-04-25T11:07:56;7.20;;;6.50;;
35606;SDS011;21729;58.392;15.656;2023-04-25T11:10:25;7.72;;;6.63;;
35606;SDS011;21729;58.392;15.656;2023-04-25T11:12:55;8.00;;;6.60;;
35606;SDS011;21729;58.392;15.656;2023-04-25T11:15:24;7.82;;;7.03;;
35606;SDS011;21729;58.392;15.656;2023-04-25T11:17:55;7.05;;;6.35;;
35606;SDS011;21729;58.392;15.656;2023-04-25T11:20:24;7.22;;;6.47;;
35606;SDS011;21729;58.392;15.656;2023-04-25T11:22:53;6.90;;;6.10;;
35606;SDS011;21729;58.392;15.656;2023-04-25T11:25:23;6.50;;;5.88;;
35606;SDS011;21729;58.392;15.656;2023-04-25T11:27:52;6.25;;;5.65;;
35606;SDS011;21729;58.392;15.656;2023-04-25T11:30:21;6.05;;;5.50;;
35606;SDS011;21729;58.392;15.656;2023-04-25T11:32:51;5.67;;;5.10;;
35606;SDS011;21729;58.392;15.656;2023-04-25T11:35:18;5.55;;;4.88;;
35606;SDS011;21729;58.392;15.656;2023-04-25T11:37:48;4.60;;;4.10;;
35606;SDS011;21729;58.392;15.656;2023-04-25T11:40:16;4.80;;;4.40;;
35606;SDS011;21729;58.392;15.656;2023-04-25T11:42:44;5.72;;;4.22;;
35606;SDS011;21729;58.392;15.656;2023-04-25T11:45:12;5.10;;;4.20;;
35606;SDS011;21729;58.392;15.656;2023-04-25T11:47:43;5.10;;;4.65;;
35606;SDS011;21729;58.392;15.656;2023-04-25T11:50:10;4.75;;;4.35;;
35606;SDS011;21729;58.392;15.656;2023-04-25T11:52:39;5.15;;;4.32;;
35606;SDS011;21729;58.392;15.656;2023-04-25T11:55:08;5.35;;;4.40;;
35606;SDS011;21729;58.392;15.656;2023-04-25T11:57:38;4.68;;;4.25;;
35606;SDS011;21729;58.392;15.656;2023-04-25T12:00:07;4.80;;;4.30;;
35606;SDS011;21729;58.392;15.656;2023-04-25T12:02:37;4.45;;;4.03;;
35606;SDS011;21729;58.392;15.656;2023-04-25T12:05:10;4.57;;;4.00;;
35606;SDS011;21729;58.392;15.656;2023-04-25T12:07:38;4.93;;;3.97;;
35606;SDS011;21729;58.392;15.656;2023-04-25T12:10:07;5.00;;;3.90;;
35606;SDS011;21729;58.392;15.656;2023-04-25T12:12:37;5.13;;;4.00;;
35606;SDS011;21729;58.392;15.656;2023-04-25T12:15:11;4.47;;;4.05;;
35606;SDS011;21729;58.392;15.656;2023-04-25T12:17:41;4.30;;;3.60;;
35606;SDS011;21729;58.392;15.656;2023-04-25T12:20:12;4.50;;;4.10;;
35606;SDS011;21729;58.392;15.656;2023-04-25T12:22:43;5.53;;;4.43;;
35606;SDS011;21729;58.392;15.656;2023-04-25T12:25:12;5.18;;;4.50;;
35606;SDS011;21729;58.392;15.656;2023-04-25T12:30:56;6.68;;;5.20;;
35606;SDS011;21729;58.392;15.656;2023-04-25T12:33:25;6.13;;;5.53;;
35606;SDS011;21729;58.392;15.656;2023-04-25T12:35:55;6.05;;;5.45;;
35606;SDS011;21729;58.392;15.656;2023-04-25T12:38:23;6.00;;;5.40;;
35606;SDS011;21729;58.392;15.656;2023-04-25T12:40:52;5.95;;;5.32;;
35606;SDS011;21729;58.392;15.656;2023-04-25T12:43:20;6.78;;;5.32;;
35606;SDS011;21729;58.392;15.656;2023-04-25T12:45:48;6.22;;;5.50;;
35606;SDS011;21729;58.392;15.656;2023-04-25T12:48:16;5.70;;;5.10;;
35606;SDS011;21729;58.392;15.656;2023-04-25T12:50:43;5.40;;;4.90;;
35606;SDS011;21729;58.392;15.656;2023-04-25T12:53:14;5.60;;;5.10;;
35606;SDS011;21729;58.392;15.656;2023-04-25T12:55:41;5.20;;;4.70;;
35606;SDS011;21729;58.392;15.656;2023-04-25T12:58:11;5.28;;;4.78;;
35606;SDS011;21729;58.392;15.656;2023-04-25T13:00:38;5.40;;;4.90;;
35606;SDS011;21729;58.392;15.656;2023-04-25T13:03:06;5.40;;;4.90;;
35606;SDS011;21729;58.392;15.656;2023-04-25T13:05:33;5.50;;;5.00;;
35606;SDS011;21729;58.392;15.656;2023-04-25T13:08:01;5.75;;;4.70;;
35606;SDS011;21729;58.392;15.656;2023-04-25T13:10:30;5.57;;;5.07;;
35606;SDS011;21729;58.392;15.656;2023-04-25T13:12:58;4.90;;;4.50;;
35606;SDS011;21729;58.392;15.656;2023-04-25T13:15:27;5.35;;;4.78;;
35606;SDS011;21729;58.392;15.656;2023-04-25T13:17:55;4.70;;;4.30;;
35606;SDS011;21729;58.392;15.656;2023-04-25T13:20:22;4.97;;;4.57;;
35606;SDS011;21729;58.392;15.656;2023-04-25T13:22:50;4.93;;;4.43;;
35606;SDS011;21729;58.392;15.656;2023-04-25T13:25:17;5.20;;;4.70;;
35606;SDS011;21729;58.392;15.656;2023-04-25T13:27:51;4.63;;;4.22;;
35606;SDS011;21729;58.392;15.656;2023-04-25T13:30:19;4.80;;;4.40;;
35606;SDS011;21729;58.392;15.656;2023-04-25T13:32:46;5.20;;;4.70;;
35606;SDS011;21729;58.392;15.656;2023-04-25T13:35:13;4.85;;;4.35;;
35606;SDS011;21729;58.392;15.656;2023-04-25T13:37:40;5.30;;;4.72;;
35606;SDS011;21729;58.392;15.656;2023-04-25T13:40:08;5.72;;;5.22;;
35606;SDS011;21729;58.392;15.656;2023-04-25T13:42:38;5.43;;;4.93;;
35606;SDS011;21729;58.392;15.656;2023-04-25T13:45:07;5.70;;;5.20;;
35606;SDS011;21729;58.392;15.656;2023-04-25T13:47:35;6.47;;;5.75;;
35606;SDS011;21729;58.392;15.656;2023-04-25T13:50:03;5.43;;;4.93;;
35606;SDS011;21729;58.392;15.656;2023-04-25T13:52:32;5.70;;;5.10;;
35606;SDS011;21729;58.392;15.656;2023-04-25T13:54:59;5.43;;;4.93;;
35606;SDS011;21729;58.392;15.656;2023-04-25T13:57:30;5.90;;;5.40;;
35606;SDS011;21729;58.392;15.656;2023-04-25T13:59:58;5.60;;;5.07;;
35606;SDS011;21729;58.392;15.656;2023-04-25T14:02:31;5.13;;;4.65;;
35606;SDS011;21729;58.392;15.656;2023-04-25T14:04:58;5.70;;;5.18;;
35606;SDS011;21729;58.392;15.656;2023-04-25T14:07:27;5.15;;;4.65;;
35606;SDS011;21729;58.392;15.656;2023-04-25T14:09:55;5.60;;;5.10;;
35606;SDS011;21729;58.392;15.656;2023-04-25T14:12:24;5.30;;;4.90;;
35606;SDS011;21729;58.392;15.656;2023-04-25T14:14:52;5.60;;;5.10;;
35606;SDS011;21729;58.392;15.656;2023-04-25T14:17:19;5.72;;;5.22;;
35606;SDS011;21729;58.392;15.656;2023-04-25T14:19:49;5.20;;;4.70;;
35606;SDS011;21729;58.392;15.656;2023-04-25T14:22:16;5.63;;;5.10;;
35606;SDS011;21729;58.392;15.656;2023-04-25T14:24:44;5.53;;;5.03;;
35606;SDS011;21729;58.392;15.656;2023-04-25T14:27:17;5.50;;;5.00;;
35606;SDS011;21729;58.392;15.656;2023-04-25T14:29:45;5.40;;;4.72;;
35606;SDS011;21729;58.392;15.656;2023-04-25T14:32:13;5.50;;;5.00;;
35606;SDS011;21729;58.392;15.656;2023-04-25T14:34:40;5.97;;;5.13;;
35606;SDS011;21729;58.392;15.656;2023-04-25T14:37:10;5.55;;;5.03;;
35606;SDS011;21729;58.392;15.656;2023-04-25T14:39:40;5.40;;;4.90;;
35606;SDS011;21729;58.392;15.656;2023-04-25T14:42:09;5.57;;;4.88;;
35606;SDS011;21729;58.392;15.656;2023-04-25T14:44:38;6.13;;;5.57;;